Myra Eckstein — WDF9473 — position and weather

sailwx.info

Track history (hours):
 
Tides and Currents Weather Stations Pressure Air Temp Water Temp Dewpoint Dewpoint Depression Visibility Wind Speed Wind Dir Waves Ship Positions

Myra Eckstein

Owner: Marquette Transportation Co. LLC, Paducah, KY. More information available from US FCC via Universal Licensing System and Coast Guard Vessel Documentation Center.

Last reported at 2018-Feb-21 00:36 UTC. Time now 2018-Feb-21 11:18 UTC.
Position N 32°01' W 091°04'.

Length 47 m; draft 3 m.

Type: Towing. MMSI: 367505510.

Date/timePositionNaut miles runAvg speedWind from/ knotsBaromVisibWave heightAir tempDewpointWater temp
2018-Feb-21 00:36N 32°01' W 091°04'4 8.7
2018-Feb-21 00:11N 32°05' W 091°05'210.7
2018-Feb-21 00:00N 32°07' W 091°06'4 7.2
2018-Feb-20 23:28N 32°07' W 091°02'5 9.7
2018-Feb-20 22:58N 32°12' W 090°60'5 9.7
2018-Feb-20 22:30N 32°16' W 090°58'5 9.8
2018-Feb-20 22:00N 32°20' W 090°54'4 8.2
2018-Feb-20 21:30N 32°21' W 090°59'4 7.6
2018-Feb-20 21:00N 32°25' W 090°60'5 9.7
2018-Feb-20 20:30N 32°27' W 091°05'5 8.9
2018-Feb-20 20:00N 32°31' W 091°06'4 8.6
2018-Feb-20 19:30N 32°35' W 091°08'4 8.3
2018-Feb-20 18:58N 32°40' W 091°08'  
Track history (hours):
 
Tides and Currents Weather Stations Pressure Air Temp Water Temp Dewpoint Dewpoint Depression Visibility Wind Speed Wind Dir Waves Ship Positions

Myra Eckstein

Owner: Marquette Transportation Co. LLC, Paducah, KY. More information available from US FCC via Universal Licensing System and Coast Guard Vessel Documentation Center.

Last reported at 2018-Feb-21 00:36 UTC. Time now 2018-Feb-21 11:18 UTC.
Position N 32°01' W 091°04'.

Length 47 m; draft 3 m.

Type: Towing. MMSI: 367505510.

Date/timePositionNaut miles runAvg speedWind from/ knotsBaromVisibWave heightAir tempDewpointWater temp
2018-Feb-21 00:36N 32°01' W 091°04'4 8.7
2018-Feb-21 00:11N 32°05' W 091°05'210.7
2018-Feb-21 00:00N 32°07' W 091°06'4 7.2
2018-Feb-20 23:28N 32°07' W 091°02'5 9.7
2018-Feb-20 22:58N 32°12' W 090°60'5 9.7
2018-Feb-20 22:30N 32°16' W 090°58'5 9.8
2018-Feb-20 22:00N 32°20' W 090°54'4 8.2
2018-Feb-20 21:30N 32°21' W 090°59'4 7.6
2018-Feb-20 21:00N 32°25' W 090°60'5 9.7
2018-Feb-20 20:30N 32°27' W 091°05'5 8.9
2018-Feb-20 20:00N 32°31' W 091°06'4 8.6
2018-Feb-20 19:30N 32°35' W 091°08'4 8.3
2018-Feb-20 18:58N 32°40' W 091°08'  

Dump ship's entire track history